createdAt,value
2019-06-10T00:00:31.268Z,1000.37
2019-06-10T00:01:31.451Z,1000.38
2019-06-10T00:02:30.992Z,1000.36
2019-06-10T00:03:31.747Z,1000.38
2019-06-10T00:04:30.898Z,1000.41
2019-06-10T00:05:30.540Z,1000.37
2019-06-10T00:06:31.078Z,1000.37
2019-06-10T00:07:31.569Z,1000.38
2019-06-10T00:08:30.831Z,1000.39
2019-06-10T00:09:31.173Z,1000.36
2019-06-10T00:10:31.185Z,1000.40
2019-06-10T00:11:31.524Z,1000.36
2019-06-10T00:12:31.483Z,1000.35
2019-06-10T00:13:31.366Z,1000.37
2019-06-10T00:14:31.479Z,1000.34
2019-06-10T00:15:31.421Z,1000.36
2019-06-10T00:16:30.895Z,1000.34
2019-06-10T00:17:31.450Z,1000.36
2019-06-10T00:18:38.805Z,1000.32
2019-06-10T00:19:31.738Z,1000.28
2019-06-10T00:20:30.621Z,1000.28
2019-06-10T00:21:30.801Z,1000.23
2019-06-10T00:22:31.555Z,1000.25
2019-06-10T00:23:32.022Z,1000.27
2019-06-10T00:24:31.496Z,1000.25
2019-06-10T00:25:31.385Z,1000.26
2019-06-10T00:26:30.776Z,1000.22
2019-06-10T00:27:31.188Z,1000.18
2019-06-10T00:28:31.173Z,1000.17
2019-06-10T00:29:31.275Z,1000.14
2019-06-10T00:30:31.343Z,1000.13
2019-06-10T00:31:31.222Z,1000.10
2019-06-10T00:32:32.042Z,1000.14
2019-06-10T00:33:30.905Z,1000.10
2019-06-10T00:34:34.885Z,1000.09
2019-06-10T00:35:31.518Z,1000.05
2019-06-10T00:36:30.885Z,1000.03
2019-06-10T00:37:31.509Z,999.97
2019-06-10T00:38:31.920Z,1000.04
2019-06-10T00:39:31.278Z,999.99
2019-06-10T00:40:31.699Z,1000.01
2019-06-10T00:41:31.315Z,1000.02
2019-06-10T00:42:31.427Z,1000.01
2019-06-10T00:43:30.607Z,1000.00
2019-06-10T00:44:31.124Z,1000.00
2019-06-10T00:45:31.595Z,999.99
2019-06-10T00:46:31.631Z,999.97
2019-06-10T00:47:30.812Z,999.93
2019-06-10T00:48:32.363Z,999.92
2019-06-10T00:49:31.710Z,999.91
2019-06-10T00:50:30.847Z,999.93
2019-06-10T00:51:31.404Z,999.89
2019-06-10T00:52:30.942Z,999.89
2019-06-10T00:53:31.613Z,999.86
2019-06-10T00:54:31.165Z,999.83
2019-06-10T00:55:31.473Z,999.86
2019-06-10T00:56:30.829Z,999.77
2019-06-10T00:57:31.455Z,999.82
2019-06-10T00:58:31.989Z,999.78
2019-06-10T00:59:31.220Z,999.82
2019-06-10T01:00:31.821Z,999.77
2019-06-10T01:01:31.246Z,999.79
2019-06-10T01:02:31.890Z,999.72
2019-06-10T01:03:31.372Z,999.70
2019-06-10T01:04:31.881Z,999.72
2019-06-10T01:05:31.265Z,999.72
2019-06-10T01:06:31.852Z,999.66
2019-06-10T01:07:31.167Z,999.67
2019-06-10T01:08:31.630Z,999.64
2019-06-10T01:09:31.081Z,999.60
2019-06-10T01:10:31.647Z,999.63
2019-06-10T01:11:31.110Z,999.67
2019-06-10T01:12:31.632Z,999.67
2019-06-10T01:13:30.965Z,999.65
2019-06-10T01:14:31.869Z,999.67
2019-06-10T01:15:31.102Z,999.66
2019-06-10T01:16:31.652Z,999.66
2019-06-10T01:17:31.117Z,999.64
2019-06-10T01:18:35.675Z,999.64
2019-06-10T01:19:31.097Z,999.59
2019-06-10T01:20:29.704Z,999.58
2019-06-10T01:21:31.351Z,999.58
2019-06-10T01:22:31.572Z,999.53
2019-06-10T01:23:31.081Z,999.48
2019-06-10T01:24:31.469Z,999.57
2019-06-10T01:25:31.074Z,999.56
2019-06-10T01:26:30.990Z,999.55
2019-06-10T01:27:31.469Z,999.53
2019-06-10T01:28:31.387Z,999.54
2019-06-10T01:29:31.415Z,999.50
2019-06-10T01:30:31.245Z,999.52
2019-06-10T01:31:31.571Z,999.54
2019-06-10T01:32:31.172Z,999.60
2019-06-10T01:33:31.663Z,999.53
2019-06-10T01:34:31.091Z,999.50
2019-06-10T01:35:30.593Z,999.46
2019-06-10T01:36:31.348Z,999.48
2019-06-10T01:37:31.114Z,999.45
2019-06-10T01:38:31.507Z,999.43
2019-06-10T01:39:30.856Z,999.43
2019-06-10T01:40:31.384Z,999.48
2019-06-10T01:41:30.611Z,999.45
2019-06-10T01:42:30.643Z,999.47
2019-06-10T01:43:31.823Z,999.47
2019-06-10T01:44:31.055Z,999.45
2019-06-10T01:45:31.205Z,999.47
2019-06-10T01:46:31.483Z,999.44
2019-06-10T01:47:31.012Z,999.45
2019-06-10T01:48:43.781Z,999.37
2019-06-10T01:49:30.966Z,999.36
2019-06-10T01:50:32.160Z,999.43
2019-06-10T01:51:31.533Z,999.38
2019-06-10T01:52:31.534Z,999.30
2019-06-10T01:53:31.225Z,999.29
2019-06-10T01:54:31.505Z,999.29
2019-06-10T01:55:31.227Z,999.26
2019-06-10T01:56:31.330Z,999.24
2019-06-10T01:57:30.848Z,999.22
2019-06-10T01:58:31.497Z,999.22
2019-06-10T01:59:31.129Z,999.30
2019-06-10T02:00:31.091Z,999.27
2019-06-10T02:01:30.652Z,999.25
2019-06-10T02:02:34.529Z,999.21
2019-06-10T02:03:31.378Z,999.23
2019-06-10T02:04:31.779Z,999.24
2019-06-10T02:05:31.154Z,999.18
2019-06-10T02:06:31.480Z,999.12
2019-06-10T02:07:31.815Z,999.12
2019-06-10T02:08:31.361Z,999.10
2019-06-10T02:09:31.051Z,999.05
2019-06-10T02:10:31.079Z,999.02
2019-06-10T02:11:31.662Z,998.99
2019-06-10T02:12:31.480Z,998.99
2019-06-10T02:13:31.979Z,998.91
2019-06-10T02:14:31.563Z,998.86
2019-06-10T02:15:31.397Z,998.91
2019-06-10T02:16:29.026Z,998.88
2019-06-10T02:17:31.439Z,998.82
2019-06-10T02:18:28.986Z,998.84
2019-06-10T02:19:30.923Z,998.82
2019-06-10T02:20:31.628Z,998.78
2019-06-10T02:21:31.026Z,998.73
2019-06-10T02:22:31.657Z,998.75
2019-06-10T02:23:31.064Z,998.76
2019-06-10T02:24:31.311Z,998.70
2019-06-10T02:25:30.509Z,998.68
2019-06-10T02:26:30.854Z,998.64
2019-06-10T02:27:31.120Z,998.62
2019-06-10T02:28:31.345Z,998.61
2019-06-10T02:29:30.772Z,998.59
2019-06-10T02:30:41.482Z,998.54
2019-06-10T02:31:37.041Z,998.51
2019-06-10T02:32:36.936Z,998.53
2019-06-10T02:33:34.996Z,998.50
2019-06-10T02:34:33.084Z,998.46
2019-06-10T02:35:43.216Z,998.41
2019-06-10T02:36:35.488Z,998.40
2019-06-10T02:37:32.321Z,998.42
2019-06-10T02:38:35.526Z,998.47
2019-06-10T02:39:35.213Z,998.53
2019-06-10T02:40:36.148Z,998.50
2019-06-10T02:41:35.350Z,998.48
2019-06-10T02:42:35.817Z,998.44
2019-06-10T02:43:32.423Z,998.45
2019-06-10T02:44:33.164Z,998.41
2019-06-10T02:45:33.854Z,998.41
2019-06-10T02:46:31.346Z,998.43
2019-06-10T02:47:33.585Z,998.48
2019-06-10T02:48:30.528Z,998.46
2019-06-10T02:49:46.331Z,998.46
2019-06-10T02:50:33.526Z,998.49
2019-06-10T02:51:43.318Z,998.52
2019-06-10T02:52:32.889Z,998.50
2019-06-10T02:53:32.167Z,998.45
2019-06-10T02:54:35.799Z,998.46
2019-06-10T02:55:37.551Z,998.41
2019-06-10T02:56:35.041Z,998.44
2019-06-10T02:57:36.590Z,998.42
2019-06-10T02:58:34.228Z,998.40
2019-06-10T02:59:32.808Z,998.37
2019-06-10T03:00:39.590Z,998.39
2019-06-10T03:01:34.261Z,998.38
2019-06-10T03:02:35.444Z,998.34
2019-06-10T03:03:39.458Z,998.37
2019-06-10T03:04:32.544Z,998.39
2019-06-10T03:05:39.283Z,998.36
2019-06-10T03:06:33.385Z,998.43
2019-06-10T03:07:32.665Z,998.42
2019-06-10T03:08:32.710Z,998.42
2019-06-10T03:09:32.777Z,998.43
2019-06-10T03:10:32.832Z,998.46
2019-06-10T03:11:35.661Z,998.52
2019-06-10T03:12:29.478Z,998.45
2019-06-10T03:13:28.443Z,998.49
2019-06-10T03:14:28.532Z,998.45
2019-06-10T03:15:29.325Z,998.46
2019-06-10T03:16:28.508Z,998.49
2019-06-10T03:17:29.186Z,998.50
2019-06-10T03:18:28.403Z,998.48
2019-06-10T03:19:41.650Z,998.45
2019-06-10T03:20:29.504Z,998.43
2019-06-10T03:21:28.577Z,998.46
2019-06-10T03:22:29.531Z,998.42
2019-06-10T03:23:28.599Z,998.42
2019-06-10T03:24:28.585Z,998.39
2019-06-10T03:25:28.527Z,998.38
2019-06-10T03:26:28.303Z,998.38
2019-06-10T03:27:28.364Z,998.40
2019-06-10T03:28:28.319Z,998.37
2019-06-10T03:29:28.865Z,998.38
2019-06-10T03:30:44.225Z,998.40
2019-06-10T03:31:37.241Z,998.41
2019-06-10T03:32:35.351Z,998.38
2019-06-10T03:33:40.398Z,998.39
2019-06-10T03:34:35.992Z,998.39
2019-06-10T03:35:29.230Z,998.38
2019-06-10T03:36:28.412Z,998.38
2019-06-10T03:37:28.285Z,998.38
2019-06-10T03:38:28.339Z,998.34
2019-06-10T03:39:28.634Z,998.35
2019-06-10T03:40:29.241Z,998.34
2019-06-10T03:41:28.242Z,998.34
2019-06-10T03:42:28.299Z,998.34
2019-06-10T03:43:28.133Z,998.32
2019-06-10T03:44:28.418Z,998.31
2019-06-10T03:45:28.558Z,998.31
2019-06-10T03:46:29.128Z,998.32
2019-06-10T03:47:28.818Z,998.29
2019-06-10T03:48:28.450Z,998.34
2019-06-10T03:49:28.862Z,998.36
2019-06-10T03:50:28.749Z,998.39
2019-06-10T03:51:28.621Z,998.34
2019-06-10T03:52:28.561Z,998.32
2019-06-10T03:53:28.545Z,998.30
2019-06-10T03:54:29.467Z,998.23
2019-06-10T03:55:29.091Z,998.24
2019-06-10T03:56:28.249Z,998.21
2019-06-10T03:57:28.706Z,998.22
2019-06-10T03:58:29.186Z,998.24
2019-06-10T03:59:29.550Z,998.21
2019-06-10T04:00:28.975Z,998.20
2019-06-10T04:01:29.771Z,998.21
2019-06-10T04:02:28.544Z,998.19
2019-06-10T04:03:29.305Z,998.21
2019-06-10T04:04:28.347Z,998.17
2019-06-10T04:05:28.843Z,998.13
2019-06-10T04:06:29.542Z,998.09
2019-06-10T04:07:30.939Z,998.15
2019-06-10T04:08:28.842Z,998.17
2019-06-10T04:09:28.871Z,998.14
2019-06-10T04:10:29.544Z,998.17
2019-06-10T04:11:29.332Z,998.14
2019-06-10T04:12:29.051Z,998.08
2019-06-10T04:13:28.455Z,998.08
2019-06-10T04:14:28.499Z,998.06
2019-06-10T04:15:29.447Z,998.07
2019-06-10T04:16:28.344Z,998.07
2019-06-10T04:17:28.693Z,998.16
2019-06-10T04:18:29.375Z,998.13
2019-06-10T04:19:28.798Z,998.12
2019-06-10T04:20:29.369Z,998.09
2019-06-10T04:21:28.407Z,998.14
2019-06-10T04:22:28.388Z,998.15
2019-06-10T04:23:28.541Z,998.11
2019-06-10T04:24:28.657Z,998.08
2019-06-10T04:25:29.409Z,998.12
2019-06-10T04:26:28.488Z,998.07
2019-06-10T04:27:28.450Z,998.02
2019-06-10T04:28:28.742Z,998.03
2019-06-10T04:29:28.930Z,997.98
2019-06-10T04:30:28.175Z,997.97
2019-06-10T04:31:28.036Z,997.96
2019-06-10T04:32:29.044Z,997.94
2019-06-10T04:33:28.773Z,997.92
2019-06-10T04:34:30.200Z,997.94
2019-06-10T04:35:27.960Z,997.91
2019-06-10T04:36:28.162Z,997.92
2019-06-10T04:37:28.120Z,997.96
2019-06-10T04:38:27.889Z,997.96
2019-06-10T04:39:28.023Z,997.98
2019-06-10T04:40:28.105Z,997.92
2019-06-10T04:41:29.131Z,997.93
2019-06-10T04:42:28.797Z,997.97
2019-06-10T04:43:28.850Z,997.92
2019-06-10T04:44:28.141Z,997.88
2019-06-10T04:45:28.012Z,997.87
2019-06-10T04:46:28.354Z,997.89
2019-06-10T04:47:28.348Z,997.90
2019-06-10T04:48:29.305Z,997.90
2019-06-10T04:49:28.629Z,997.91
2019-06-10T04:50:37.231Z,997.86
2019-06-10T04:51:29.717Z,997.84
2019-06-10T04:52:28.391Z,997.81
2019-06-10T04:53:28.261Z,997.85
2019-06-10T04:54:28.643Z,997.84
2019-06-10T04:55:27.840Z,997.82
2019-06-10T04:56:28.738Z,997.76
2019-06-10T04:57:28.385Z,997.84
2019-06-10T04:58:28.775Z,997.77
2019-06-10T04:59:28.816Z,997.81
2019-06-10T05:00:28.798Z,997.79
2019-06-10T05:01:28.615Z,997.79
2019-06-10T05:02:28.485Z,997.82
2019-06-10T05:03:28.049Z,997.84
2019-06-10T05:04:28.749Z,997.86
2019-06-10T05:05:28.850Z,997.85
2019-06-10T05:06:28.356Z,997.81
2019-06-10T05:07:32.585Z,997.87
2019-06-10T05:08:29.634Z,997.89
2019-06-10T05:09:28.784Z,997.88
2019-06-10T05:10:28.291Z,997.91
2019-06-10T05:11:28.586Z,997.88
2019-06-10T05:12:27.998Z,997.90
2019-06-10T05:13:28.385Z,997.91
2019-06-10T05:14:28.754Z,997.92
2019-06-10T05:15:28.466Z,997.94
2019-06-10T05:16:30.523Z,997.95
2019-06-10T05:17:29.701Z,997.96
2019-06-10T05:18:27.627Z,997.96
2019-06-10T05:19:28.034Z,997.97
2019-06-10T05:20:44.498Z,997.96
2019-06-10T05:21:29.431Z,997.90
2019-06-10T05:22:28.175Z,997.88
2019-06-10T05:23:27.925Z,997.91
2019-06-10T05:24:29.582Z,997.88
2019-06-10T05:25:28.384Z,997.83
2019-06-10T05:26:28.530Z,997.86
2019-06-10T05:27:28.283Z,997.90
2019-06-10T05:28:27.463Z,997.86
2019-06-10T05:29:28.359Z,997.86
2019-06-10T05:30:28.178Z,997.84
2019-06-10T05:31:28.926Z,997.86
2019-06-10T05:32:27.845Z,997.87
2019-06-10T05:33:27.151Z,997.87
2019-06-10T05:34:28.377Z,997.84
2019-06-10T05:35:28.104Z,997.86
2019-06-10T05:36:28.686Z,997.89
2019-06-10T05:37:27.937Z,997.85
2019-06-10T05:38:29.131Z,997.86
2019-06-10T05:39:27.590Z,997.87
2019-06-10T05:40:27.651Z,997.83
2019-06-10T05:41:27.911Z,997.83
2019-06-10T05:42:28.180Z,997.83
2019-06-10T05:43:27.866Z,997.84
2019-06-10T05:44:28.474Z,997.77
2019-06-10T05:45:27.977Z,997.81
2019-06-10T05:46:27.346Z,997.76
2019-06-10T05:47:29.220Z,997.78
2019-06-10T05:48:26.909Z,997.75
2019-06-10T05:49:27.786Z,997.70
2019-06-10T05:50:28.495Z,997.67
2019-06-10T05:51:27.883Z,997.69
2019-06-10T05:52:27.642Z,997.68
2019-06-10T05:53:28.036Z,997.65
2019-06-10T05:54:27.903Z,997.63
2019-06-10T05:55:27.065Z,997.62
2019-06-10T05:56:27.201Z,997.61
2019-06-10T05:57:29.382Z,997.61
2019-06-10T05:58:27.792Z,997.65
2019-06-10T05:59:27.349Z,997.64
2019-06-10T06:00:27.549Z,997.62
2019-06-10T06:01:27.552Z,997.70
2019-06-10T06:02:27.722Z,997.62
2019-06-10T06:03:27.768Z,997.69
2019-06-10T06:04:26.535Z,997.69
2019-06-10T06:05:26.526Z,997.64
2019-06-10T06:06:27.055Z,997.66
2019-06-10T06:07:27.053Z,997.65
2019-06-10T06:08:27.099Z,997.65
2019-06-10T06:09:27.158Z,997.64
2019-06-10T06:10:27.222Z,997.64
2019-06-10T06:11:27.349Z,997.69
2019-06-10T06:12:27.546Z,997.71
2019-06-10T06:13:27.438Z,997.73
2019-06-10T06:14:27.509Z,997.77
2019-06-10T06:15:27.594Z,997.71
2019-06-10T06:16:27.629Z,997.70
2019-06-10T06:17:27.870Z,997.74
2019-06-10T06:18:26.482Z,997.72
2019-06-10T06:19:26.379Z,997.75
2019-06-10T06:20:27.048Z,997.70
2019-06-10T06:21:31.463Z,997.70
2019-06-10T06:22:27.471Z,997.74
2019-06-10T06:23:26.886Z,997.71
2019-06-10T06:24:27.465Z,997.74
2019-06-10T06:25:27.629Z,997.74
2019-06-10T06:26:26.836Z,997.78
2019-06-10T06:27:26.739Z,997.74
2019-06-10T06:28:26.293Z,997.77
2019-06-10T06:29:26.909Z,997.77
2019-06-10T06:30:26.260Z,997.77
2019-06-10T06:31:26.244Z,997.83
2019-06-10T06:32:26.341Z,997.77
2019-06-10T06:33:27.317Z,997.79
2019-06-10T06:34:26.868Z,997.74
2019-06-10T06:35:26.410Z,997.73
2019-06-10T06:36:26.612Z,997.70
2019-06-10T06:37:26.875Z,997.71
2019-06-10T06:38:26.886Z,997.75
2019-06-10T06:39:27.037Z,997.73
2019-06-10T06:40:27.181Z,997.73
2019-06-10T06:41:27.352Z,997.73
2019-06-10T06:42:27.192Z,997.76
2019-06-10T06:43:28.954Z,997.73
2019-06-10T06:44:26.098Z,997.76
2019-06-10T06:45:26.108Z,997.79
2019-06-10T06:46:26.090Z,997.75
2019-06-10T06:47:26.077Z,997.74
2019-06-10T06:48:26.078Z,997.79
2019-06-10T06:49:26.138Z,997.77
2019-06-10T06:50:26.044Z,997.76
2019-06-10T06:51:38.993Z,997.78
2019-06-10T06:52:56.732Z,997.76
2019-06-10T06:53:33.302Z,997.77
2019-06-10T06:54:27.051Z,997.76
2019-06-10T06:55:25.996Z,997.79
2019-06-10T06:56:25.946Z,997.75
2019-06-10T06:57:25.958Z,997.78
2019-06-10T06:58:27.016Z,997.79
2019-06-10T06:59:25.976Z,997.84
2019-06-10T07:00:42.994Z,997.82
2019-06-10T07:01:27.664Z,997.81
2019-06-10T07:02:25.895Z,997.75
2019-06-10T07:03:25.889Z,997.81
2019-06-10T07:04:25.862Z,997.84
2019-06-10T07:05:25.857Z,997.87
2019-06-10T07:06:25.887Z,997.82
2019-06-10T07:07:25.929Z,997.80
2019-06-10T07:08:25.830Z,997.80
2019-06-10T07:09:25.909Z,997.80
2019-06-10T07:10:25.845Z,997.80
2019-06-10T07:11:25.824Z,997.74
2019-06-10T07:12:25.773Z,997.76
2019-06-10T07:13:25.855Z,997.77
2019-06-10T07:14:25.735Z,997.80
2019-06-10T07:15:25.788Z,997.82
2019-06-10T07:16:25.751Z,997.88
2019-06-10T07:17:25.963Z,997.87
2019-06-10T07:18:25.722Z,997.86
2019-06-10T07:19:25.733Z,997.83
2019-06-10T07:20:25.744Z,997.79
2019-06-10T07:21:25.735Z,997.79
2019-06-10T07:22:26.845Z,997.82
2019-06-10T07:23:25.655Z,997.81
2019-06-10T07:24:25.670Z,997.76
2019-06-10T07:25:25.664Z,997.79
2019-06-10T07:26:25.670Z,997.80
2019-06-10T07:27:25.648Z,997.82
2019-06-10T07:28:25.667Z,997.80
2019-06-10T07:29:25.620Z,997.80
2019-06-10T07:30:25.642Z,997.77
2019-06-10T07:31:27.990Z,997.69
2019-06-10T07:32:25.552Z,997.73
2019-06-10T07:33:25.569Z,997.74
2019-06-10T07:34:25.565Z,997.76
2019-06-10T07:35:25.598Z,997.73
2019-06-10T07:36:25.516Z,997.73
2019-06-10T07:37:25.520Z,997.72
2019-06-10T07:38:26.342Z,997.68
2019-06-10T07:39:25.536Z,997.68
2019-06-10T07:40:25.500Z,997.69
2019-06-10T07:41:25.471Z,997.71
2019-06-10T07:42:25.440Z,997.71
2019-06-10T07:43:25.556Z,997.70
2019-06-10T07:44:25.443Z,997.66
2019-06-10T07:45:25.425Z,997.63
2019-06-10T07:46:25.401Z,997.68
2019-06-10T07:47:25.439Z,997.68
2019-06-10T07:48:25.422Z,997.65
2019-06-10T07:49:25.509Z,997.63
2019-06-10T07:50:25.345Z,997.67
2019-06-10T07:51:25.395Z,997.69
2019-06-10T07:52:25.348Z,997.67
2019-06-10T07:53:25.418Z,997.72
2019-06-10T07:54:25.354Z,997.72
2019-06-10T07:55:25.326Z,997.74
2019-06-10T07:56:25.330Z,997.75
2019-06-10T07:57:25.270Z,997.76
2019-06-10T07:58:25.269Z,997.75
2019-06-10T07:59:25.253Z,997.75
2019-06-10T08:00:25.313Z,997.72
2019-06-10T08:01:25.254Z,997.70
2019-06-10T08:02:25.225Z,997.70
2019-06-10T08:03:25.264Z,997.61
2019-06-10T08:04:25.241Z,997.61
2019-06-10T08:05:25.207Z,997.49
2019-06-10T08:06:25.379Z,997.56
2019-06-10T08:07:25.179Z,997.50
2019-06-10T08:08:25.197Z,997.47
2019-06-10T08:09:25.200Z,997.47
2019-06-10T08:10:25.165Z,997.46
2019-06-10T08:11:25.200Z,997.45
2019-06-10T08:12:25.208Z,997.41
2019-06-10T08:13:25.185Z,997.41
2019-06-10T08:14:25.128Z,997.43
2019-06-10T08:15:25.099Z,997.39
2019-06-10T08:16:25.112Z,997.42
2019-06-10T08:17:25.073Z,997.46
2019-06-10T08:18:26.121Z,997.47
2019-06-10T08:19:34.314Z,997.46
2019-06-10T08:20:26.057Z,997.45
2019-06-10T08:21:25.151Z,997.49
2019-06-10T08:22:33.289Z,997.48
2019-06-10T08:23:26.025Z,997.49
2019-06-10T08:24:24.984Z,997.49
2019-06-10T08:25:24.999Z,997.48
2019-06-10T08:26:25.018Z,997.48
2019-06-10T08:27:25.003Z,997.53
2019-06-10T08:28:25.032Z,997.57
2019-06-10T08:29:24.959Z,997.60
2019-06-10T08:30:27.634Z,997.63
2019-06-10T08:31:24.942Z,997.71
2019-06-10T08:32:25.174Z,997.74
2019-06-10T08:33:27.166Z,997.71
2019-06-10T08:34:24.993Z,997.70
2019-06-10T08:35:38.334Z,997.68
2019-06-10T08:36:25.922Z,997.74
2019-06-10T08:37:24.874Z,997.76
2019-06-10T08:38:24.864Z,997.74
2019-06-10T08:39:24.888Z,997.69
2019-06-10T08:40:24.802Z,997.72
2019-06-10T08:41:24.872Z,997.72
2019-06-10T08:42:24.882Z,997.65
2019-06-10T08:43:24.771Z,997.59
2019-06-10T08:44:24.787Z,997.61
2019-06-10T08:45:24.801Z,997.74
2019-06-10T08:46:24.851Z,997.65
2019-06-10T08:47:24.794Z,997.77
2019-06-10T08:48:24.742Z,997.79
2019-06-10T08:49:24.798Z,997.76
2019-06-10T08:50:24.936Z,997.80
2019-06-10T08:51:24.795Z,997.59
2019-06-10T08:52:25.753Z,997.67
2019-06-10T08:53:24.852Z,997.46
2019-06-10T08:54:24.722Z,997.45
2019-06-10T08:55:24.694Z,997.49
2019-06-10T08:56:24.645Z,997.48
2019-06-10T08:57:24.653Z,997.39
2019-06-10T08:58:24.756Z,997.25
2019-06-10T08:59:24.676Z,997.22
2019-06-10T09:00:25.650Z,997.21
2019-06-10T09:01:24.647Z,997.32
2019-06-10T09:02:25.499Z,997.26
2019-06-10T09:03:24.607Z,997.51
2019-06-10T09:04:24.581Z,997.66
2019-06-10T09:05:24.558Z,997.58
2019-06-10T09:06:24.658Z,997.55
2019-06-10T09:07:24.573Z,997.49
2019-06-10T09:08:24.557Z,997.16
2019-06-10T09:09:24.690Z,997.14
2019-06-10T09:10:24.749Z,997.44
2019-06-10T09:11:24.623Z,997.43
2019-06-10T09:12:32.835Z,997.47
2019-06-10T09:13:26.480Z,997.59
2019-06-10T09:14:24.516Z,997.41
2019-06-10T09:15:24.465Z,997.37
2019-06-10T09:16:24.464Z,997.57
2019-06-10T09:17:24.508Z,997.66
2019-06-10T09:18:24.397Z,997.61
2019-06-10T09:19:24.519Z,997.65
2019-06-10T09:20:24.465Z,997.65
2019-06-10T09:21:24.425Z,997.57
2019-06-10T09:22:24.447Z,997.51
2019-06-10T09:23:25.677Z,997.56
2019-06-10T09:24:24.406Z,997.52
2019-06-10T09:25:24.380Z,997.59
2019-06-10T09:26:24.326Z,997.60
2019-06-10T09:27:26.854Z,997.65
2019-06-10T09:28:24.375Z,997.74
2019-06-10T09:29:24.373Z,997.75
2019-06-10T09:30:24.324Z,997.71
2019-06-10T09:31:24.330Z,997.64
2019-06-10T09:32:24.280Z,997.73
2019-06-10T09:33:24.290Z,997.64
2019-06-10T09:34:24.278Z,997.77
2019-06-10T09:35:24.295Z,997.73
2019-06-10T09:36:24.313Z,997.65
2019-06-10T09:37:24.241Z,997.60
2019-06-10T09:38:24.505Z,997.59
2019-06-10T09:39:24.293Z,997.57
2019-06-10T09:40:24.217Z,997.58
2019-06-10T09:41:36.408Z,997.35
2019-06-10T09:42:25.177Z,997.35
2019-06-10T09:43:24.175Z,997.29
2019-06-10T09:44:24.166Z,997.28
2019-06-10T09:45:24.172Z,997.22
2019-06-10T09:46:24.130Z,997.23
2019-06-10T09:47:24.180Z,997.25
2019-06-10T09:48:24.115Z,997.26
2019-06-10T09:49:24.144Z,997.31
2019-06-10T09:50:24.180Z,997.27
2019-06-10T09:51:24.188Z,997.51
2019-06-10T09:52:24.168Z,997.56
2019-06-10T09:53:32.799Z,997.62
2019-06-10T09:54:25.074Z,997.62
2019-06-10T09:55:24.138Z,997.57
2019-06-10T09:56:24.091Z,997.43
2019-06-10T09:57:24.221Z,997.42
2019-06-10T09:58:24.128Z,997.39
2019-06-10T09:59:24.008Z,997.38
2019-06-10T10:00:24.016Z,997.20
2019-06-10T10:01:24.719Z,997.31
2019-06-10T10:02:24.460Z,997.33
2019-06-10T10:03:24.057Z,997.14
2019-06-10T10:04:23.978Z,997.40
2019-06-10T10:05:24.016Z,997.37
2019-06-10T10:06:23.964Z,997.41
2019-06-10T10:07:24.072Z,997.32
2019-06-10T10:08:23.986Z,997.31
2019-06-10T10:09:23.930Z,997.26
2019-06-10T10:10:24.144Z,997.29
2019-06-10T10:11:27.575Z,997.16
2019-06-10T10:12:23.884Z,997.10
2019-06-10T10:13:24.022Z,997.15
2019-06-10T10:14:23.906Z,997.34
2019-06-10T10:15:30.574Z,997.10
2019-06-10T10:16:24.884Z,997.27
2019-06-10T10:17:24.028Z,997.41
2019-06-10T10:18:23.874Z,997.31
2019-06-10T10:19:23.833Z,997.28
2019-06-10T10:20:23.928Z,997.26
2019-06-10T10:21:23.833Z,997.21
2019-06-10T10:22:23.956Z,997.15
2019-06-10T10:23:23.857Z,997.20
2019-06-10T10:24:24.075Z,996.99
2019-06-10T10:25:23.850Z,996.95
2019-06-10T10:26:23.972Z,996.95
2019-06-10T10:27:24.875Z,996.91
2019-06-10T10:28:26.334Z,996.90
2019-06-10T10:29:23.819Z,996.87
2019-06-10T10:30:24.544Z,996.86
2019-06-10T10:31:24.129Z,996.81
2019-06-10T10:32:23.872Z,996.85
2019-06-10T10:33:28.955Z,996.82
2019-06-10T10:34:24.778Z,996.81
2019-06-10T10:35:24.275Z,996.73
2019-06-10T10:36:23.646Z,996.69
2019-06-10T10:37:23.954Z,996.69
2019-06-10T10:38:23.639Z,996.65
2019-06-10T10:39:24.594Z,996.60
2019-06-10T10:40:24.423Z,996.57
2019-06-10T10:41:24.220Z,996.56
2019-06-10T10:42:23.844Z,996.57
2019-06-10T10:43:32.686Z,996.61
2019-06-10T10:44:25.549Z,996.67
2019-06-10T10:45:24.598Z,996.62
2019-06-10T10:46:24.274Z,996.60
2019-06-10T10:47:27.015Z,996.58
2019-06-10T10:48:23.629Z,996.54
2019-06-10T10:49:23.595Z,996.54
2019-06-10T10:50:24.683Z,996.54
2019-06-10T10:51:25.168Z,996.58
2019-06-10T10:52:23.844Z,996.56
2019-06-10T10:53:23.885Z,996.58
2019-06-10T10:54:32.869Z,996.57
2019-06-10T10:55:24.410Z,996.58
2019-06-10T10:56:23.418Z,996.55
2019-06-10T10:57:23.414Z,996.55
2019-06-10T10:58:23.433Z,996.59
2019-06-10T10:59:23.377Z,996.89
2019-06-10T11:00:23.382Z,996.96
2019-06-10T11:01:23.801Z,997.24
2019-06-10T11:02:23.555Z,997.26
2019-06-10T11:03:23.759Z,997.20
2019-06-10T11:04:23.663Z,997.05
2019-06-10T11:05:24.455Z,997.05
2019-06-10T11:06:23.532Z,996.88
2019-06-10T11:07:23.480Z,997.19
2019-06-10T11:08:23.482Z,997.20
2019-06-10T11:09:23.838Z,996.71
2019-06-10T11:10:23.731Z,996.52
2019-06-10T11:11:23.661Z,996.45
2019-06-10T11:12:23.517Z,996.96
2019-06-10T11:13:23.565Z,997.18
2019-06-10T11:14:23.317Z,997.19
2019-06-10T11:15:23.262Z,997.23
2019-06-10T11:16:24.020Z,997.28
2019-06-10T11:17:23.571Z,997.23
2019-06-10T11:18:23.296Z,997.24
2019-06-10T11:19:33.616Z,997.23
2019-06-10T11:20:23.300Z,996.60
2019-06-10T11:21:23.449Z,996.38
2019-06-10T11:22:23.943Z,996.45
2019-06-10T11:23:23.289Z,997.00
2019-06-10T11:24:33.512Z,997.02
2019-06-10T11:25:24.385Z,997.08
2019-06-10T11:26:26.671Z,997.09
2019-06-10T11:27:24.020Z,997.13
2019-06-10T11:28:23.577Z,997.16
2019-06-10T11:29:23.244Z,997.07
2019-06-10T11:30:23.618Z,996.38
2019-06-10T11:31:23.417Z,996.26
2019-06-10T11:32:23.167Z,996.18
2019-06-10T11:33:23.275Z,996.19
2019-06-10T11:34:23.154Z,996.78
2019-06-10T11:35:23.136Z,996.66
2019-06-10T11:36:23.856Z,996.14
2019-06-10T11:37:29.403Z,996.07
2019-06-10T11:38:23.528Z,996.05
2019-06-10T11:39:23.347Z,996.06
2019-06-10T11:40:24.751Z,996.48
2019-06-10T11:41:23.632Z,996.06
2019-06-10T11:42:23.495Z,996.25
2019-06-10T11:43:23.020Z,996.58
2019-06-10T11:44:23.024Z,996.57
2019-06-10T11:45:22.942Z,996.49
2019-06-10T11:46:22.926Z,996.50
2019-06-10T11:47:23.071Z,996.40
2019-06-10T11:48:23.815Z,996.11
2019-06-10T11:49:23.797Z,996.12
2019-06-10T11:50:23.346Z,996.03
2019-06-10T11:51:23.414Z,996.04
2019-06-10T11:52:23.073Z,996.05
2019-06-10T11:53:23.050Z,996.03
2019-06-10T11:54:24.190Z,996.34
2019-06-10T11:55:23.794Z,996.37
2019-06-10T11:56:22.868Z,996.38
2019-06-10T11:57:22.975Z,996.45
2019-06-10T11:58:23.781Z,996.43
2019-06-10T11:59:23.150Z,996.38
2019-06-10T12:00:24.107Z,996.31
2019-06-10T12:01:24.563Z,996.25
2019-06-10T12:02:27.362Z,996.03
2019-06-10T12:03:23.161Z,996.00
2019-06-10T12:04:24.977Z,995.97
2019-06-10T12:05:23.473Z,995.93
2019-06-10T12:06:23.010Z,995.91
2019-06-10T12:07:24.359Z,995.87
2019-06-10T12:08:23.627Z,995.89
2019-06-10T12:09:23.031Z,995.88
2019-06-10T12:10:27.065Z,995.87
2019-06-10T12:11:25.339Z,995.83
2019-06-10T12:12:22.938Z,995.79
2019-06-10T12:13:22.761Z,995.81
2019-06-10T12:14:26.821Z,995.83
2019-06-10T12:15:22.921Z,995.83
2019-06-10T12:17:14.704Z,995.87
2019-06-10T12:17:40.889Z,995.82
2019-06-10T12:18:23.844Z,995.83
2019-06-10T12:19:23.520Z,995.83
2019-06-10T12:20:22.949Z,995.86
2019-06-10T12:21:23.517Z,995.84
2019-06-10T12:22:22.796Z,995.83
2019-06-10T12:23:22.821Z,995.79
2019-06-10T12:24:24.427Z,995.79
2019-06-10T12:25:32.460Z,995.77
2019-06-10T12:26:23.679Z,995.78
2019-06-10T12:27:24.371Z,995.75